Crane Gaia — 3FXX2 — position and weather

sailwx.info

Track history (hours):
 
Tides and Currents Weather Stations Pressure Air Temp Water Temp Dewpoint Dewpoint Depression Visibility Wind Speed Wind Dir Waves Ship Positions

Crane Gaia

Last reported at 2017-Jan-10 19:27 UTC. Time now 2017-Feb-21 10:04 UTC.
Position N 34°57' E 139°42'.
Warning: this ship's position is 41 days out of date.

Length 115 m; draft 5.8 m.

Type: Tanker. MMSI: 352461000.

Date/timePositionNaut miles runAvg speedWind from/ knotsBaromVisibWave heightAir tempDewpointWater temp
2017-Jan-10 19:27N 34°57' E 139°42'1213.3
2017-Jan-10 18:34N 35°09' E 139°44'1211.8
2017-Jan-10 17:34N 35°20' E 139°42'5 5.4
2017-Jan-10 16:33N 35°25' E 139°38'0 0.0
2017-Jan-10 15:33N 35°25' E 139°38'0 0.0
2017-Jan-10 14:33N 35°25' E 139°38'0 0.0
2017-Jan-10 13:33N 35°25' E 139°38'0 0.0
2017-Jan-10 12:30N 35°25' E 139°38'0 0.0
2017-Jan-10 11:33N 35°25' E 139°38'0 0.0
2017-Jan-10 10:33N 35°25' E 139°38'0 0.0
2017-Jan-10 09:33N 35°25' E 139°38'0 0.0
2017-Jan-10 08:33N 35°25' E 139°38'0 0.0
2017-Jan-10 07:18N 35°25' E 139°38'0 0.0
2017-Jan-10 06:33N 35°25' E 139°38'0 0.0
2017-Jan-10 05:30N 35°25' E 139°38'0 0.0
2017-Jan-10 04:30N 35°25' E 139°38'2 2.4
2017-Jan-10 03:34N 35°23' E 139°40'0 0.3
2017-Jan-10 02:31N 35°23' E 139°40'0 0.1
2017-Jan-10 01:31N 35°23' E 139°40'0 0.1
2017-Jan-10 00:31N 35°23' E 139°41'0 0.0
2017-Jan-09 23:31N 35°23' E 139°41'0 0.0
2017-Jan-09 22:31N 35°23' E 139°41'0 0.0
2017-Jan-09 21:31N 35°23' E 139°41'0 0.0
2017-Jan-09 20:31N 35°23' E 139°41'0 0.0
2017-Jan-09 19:31N 35°23' E 139°41'0 0.0
2017-Jan-09 18:31N 35°23' E 139°41'0 0.1
2017-Jan-09 17:31N 35°23' E 139°41'0 0.1
2017-Jan-09 16:31N 35°23' E 139°40'0 0.0
2017-Jan-09 15:31N 35°23' E 139°40'0 0.1
2017-Jan-09 14:31N 35°23' E 139°41'0 0.0
2017-Jan-09 13:31N 35°23' E 139°41'0 0.0
2017-Jan-09 12:31N 35°23' E 139°41'0 0.1
2017-Jan-09 11:31N 35°23' E 139°41'0 0.0
2017-Jan-09 10:31N 35°23' E 139°41'0 0.0
2017-Jan-09 09:31N 35°23' E 139°41'4 4.2
2017-Jan-09 08:33N 35°19' E 139°43'1110.6
2017-Jan-09 07:33N 35°09' E 139°46'  
2017-Jan-02 10:06N 31°08' E 123°09'813.7
2017-Jan-02 09:31N 31°04' E 123°01'5713.0
2017-Jan-02 05:08N 30°32' E 122°06'811.2
2017-Jan-02 04:27N 30°27' E 121°59'  
Track history (hours):
 
Tides and Currents Weather Stations Pressure Air Temp Water Temp Dewpoint Dewpoint Depression Visibility Wind Speed Wind Dir Waves Ship Positions

Crane Gaia

Last reported at 2017-Jan-10 19:27 UTC. Time now 2017-Feb-21 10:04 UTC.
Position N 34°57' E 139°42'.
Warning: this ship's position is 41 days out of date.

Length 115 m; draft 5.8 m.

Type: Tanker. MMSI: 352461000.

Date/timePositionNaut miles runAvg speedWind from/ knotsBaromVisibWave heightAir tempDewpointWater temp
2017-Jan-10 19:27N 34°57' E 139°42'1213.3
2017-Jan-10 18:34N 35°09' E 139°44'1211.8
2017-Jan-10 17:34N 35°20' E 139°42'5 5.4
2017-Jan-10 16:33N 35°25' E 139°38'0 0.0
2017-Jan-10 15:33N 35°25' E 139°38'0 0.0
2017-Jan-10 14:33N 35°25' E 139°38'0 0.0
2017-Jan-10 13:33N 35°25' E 139°38'0 0.0
2017-Jan-10 12:30N 35°25' E 139°38'0 0.0
2017-Jan-10 11:33N 35°25' E 139°38'0 0.0
2017-Jan-10 10:33N 35°25' E 139°38'0 0.0
2017-Jan-10 09:33N 35°25' E 139°38'0 0.0
2017-Jan-10 08:33N 35°25' E 139°38'0 0.0
2017-Jan-10 07:18N 35°25' E 139°38'0 0.0
2017-Jan-10 06:33N 35°25' E 139°38'0 0.0
2017-Jan-10 05:30N 35°25' E 139°38'0 0.0
2017-Jan-10 04:30N 35°25' E 139°38'2 2.4
2017-Jan-10 03:34N 35°23' E 139°40'0 0.3
2017-Jan-10 02:31N 35°23' E 139°40'0 0.1
2017-Jan-10 01:31N 35°23' E 139°40'0 0.1
2017-Jan-10 00:31N 35°23' E 139°41'0 0.0
2017-Jan-09 23:31N 35°23' E 139°41'0 0.0
2017-Jan-09 22:31N 35°23' E 139°41'0 0.0
2017-Jan-09 21:31N 35°23' E 139°41'0 0.0
2017-Jan-09 20:31N 35°23' E 139°41'0 0.0
2017-Jan-09 19:31N 35°23' E 139°41'0 0.0
2017-Jan-09 18:31N 35°23' E 139°41'0 0.1
2017-Jan-09 17:31N 35°23' E 139°41'0 0.1
2017-Jan-09 16:31N 35°23' E 139°40'0 0.0
2017-Jan-09 15:31N 35°23' E 139°40'0 0.1
2017-Jan-09 14:31N 35°23' E 139°41'0 0.0
2017-Jan-09 13:31N 35°23' E 139°41'0 0.0
2017-Jan-09 12:31N 35°23' E 139°41'0 0.1
2017-Jan-09 11:31N 35°23' E 139°41'0 0.0
2017-Jan-09 10:31N 35°23' E 139°41'0 0.0
2017-Jan-09 09:31N 35°23' E 139°41'4 4.2
2017-Jan-09 08:33N 35°19' E 139°43'1110.6
2017-Jan-09 07:33N 35°09' E 139°46'  
2017-Jan-02 10:06N 31°08' E 123°09'813.7
2017-Jan-02 09:31N 31°04' E 123°01'5713.0
2017-Jan-02 05:08N 30°32' E 122°06'811.2
2017-Jan-02 04:27N 30°27' E 121°59'  

Dump ship's entire track history